createdAt,value
2023-09-08T00:02:29.718Z,101851.38
2023-09-08T00:04:56.814Z,101851.63
2023-09-08T00:07:23.484Z,101852.69
2023-09-08T00:09:50.140Z,101851.97
2023-09-08T00:12:16.842Z,101846.16
2023-09-08T00:14:43.713Z,101838.38
2023-09-08T00:17:10.386Z,101838.44
2023-09-08T00:19:37.076Z,101839.63
2023-09-08T00:22:07.043Z,101845.13
2023-09-08T00:24:34.120Z,101849.53
2023-09-08T00:27:00.652Z,101852.13
2023-09-08T00:29:27.283Z,101851.97
2023-09-08T00:31:53.811Z,101849.28
2023-09-08T00:34:20.355Z,101856.97
2023-09-08T00:36:46.825Z,101853.59
2023-09-08T00:39:13.362Z,101853.66
2023-09-08T00:41:39.889Z,101850.25
2023-09-08T00:44:06.448Z,101848.81
2023-09-08T00:46:33.280Z,101850.66
2023-09-08T00:48:59.875Z,101849.78
2023-09-08T00:51:26.912Z,101853.38
2023-09-08T00:53:54.143Z,101842.09
2023-09-08T00:56:21.555Z,101850.00
2023-09-08T00:58:48.196Z,101849.28
2023-09-08T01:01:15.260Z,101848.53
2023-09-08T01:03:41.766Z,101845.00
2023-09-08T01:06:08.415Z,101837.19
2023-09-08T01:08:37.109Z,101832.03
2023-09-08T01:11:04.194Z,101838.03
2023-09-08T01:13:30.650Z,101838.16
2023-09-08T01:15:57.304Z,101835.75
2023-09-08T01:18:24.089Z,101839.06
2023-09-08T01:21:12.862Z,101836.88
2023-09-08T01:24:07.202Z,101838.69
2023-09-08T01:26:38.036Z,101843.28
2023-09-08T01:29:06.419Z,101840.97
2023-09-08T01:31:34.200Z,101837.91
2023-09-08T01:34:05.771Z,101841.41
2023-09-08T01:36:32.352Z,101831.97
2023-09-08T01:38:58.940Z,101832.88
2023-09-08T01:41:25.496Z,101841.69
2023-09-08T01:43:51.969Z,101844.19
2023-09-08T01:46:18.597Z,101831.19
2023-09-08T01:48:45.709Z,101842.44
2023-09-08T01:51:12.452Z,101839.84
2023-09-08T01:53:39.070Z,101847.09
2023-09-08T01:56:05.681Z,101841.19
2023-09-08T01:58:33.836Z,101843.72
2023-09-08T02:01:06.655Z,101830.75
2023-09-08T02:03:34.001Z,101834.16
2023-09-08T02:06:00.662Z,101842.81
2023-09-08T02:08:27.149Z,101844.56
2023-09-08T02:10:53.743Z,101844.06
2023-09-08T02:13:20.271Z,101832.25
2023-09-08T02:15:47.008Z,101840.16
2023-09-08T02:18:14.394Z,101833.34
2023-09-08T02:20:41.069Z,101838.88
2023-09-08T02:23:08.747Z,101834.81
2023-09-08T02:25:35.473Z,101831.34
2023-09-08T02:28:02.384Z,101826.91
2023-09-08T02:30:28.935Z,101826.84
2023-09-08T02:32:56.385Z,101830.16
2023-09-08T02:35:25.772Z,101824.25
2023-09-08T02:37:52.462Z,101829.56
2023-09-08T02:40:20.166Z,101831.59
2023-09-08T02:42:46.770Z,101830.00
2023-09-08T02:45:13.366Z,101819.88
2023-09-08T02:47:39.828Z,101826.00
2023-09-08T02:50:06.708Z,101828.53
2023-09-08T02:52:33.253Z,101835.63
2023-09-08T02:54:59.710Z,101840.72
2023-09-08T02:57:26.218Z,101830.38
2023-09-08T02:59:52.804Z,101834.78
2023-09-08T03:02:19.520Z,101838.56
2023-09-08T03:04:46.130Z,101844.06
2023-09-08T03:07:12.653Z,101840.88
2023-09-08T03:09:39.165Z,101840.88
2023-09-08T03:12:05.835Z,101835.91
2023-09-08T03:14:32.340Z,101838.44
2023-09-08T03:16:58.891Z,101842.72
2023-09-08T03:19:25.531Z,101842.03
2023-09-08T03:21:52.097Z,101839.59
2023-09-08T03:24:18.685Z,101832.72
2023-09-08T03:26:45.301Z,101831.78
2023-09-08T03:29:11.954Z,101830.34
2023-09-08T03:31:38.858Z,101826.13
2023-09-08T03:34:05.446Z,101827.22
2023-09-08T03:36:32.229Z,101815.84
2023-09-08T03:38:59.332Z,101821.13
2023-09-08T03:41:26.138Z,101821.09
2023-09-08T03:43:52.667Z,101823.88
2023-09-08T03:46:19.281Z,101816.13
2023-09-08T03:48:45.914Z,101817.91
2023-09-08T03:51:12.410Z,101813.66
2023-09-08T03:53:39.236Z,101816.91
2023-09-08T03:56:06.198Z,101812.75
2023-09-08T03:58:32.941Z,101807.59
2023-09-08T04:00:59.623Z,101810.91
2023-09-08T04:03:26.548Z,101811.19
2023-09-08T04:05:53.138Z,101799.47
2023-09-08T04:08:19.566Z,101801.38
2023-09-08T04:10:46.350Z,101814.47
2023-09-08T04:13:12.792Z,101805.97
2023-09-08T04:15:42.210Z,101804.41
2023-09-08T04:18:09.173Z,101802.69
2023-09-08T04:20:35.858Z,101807.59
2023-09-08T04:23:02.417Z,101804.00
2023-09-08T04:25:28.906Z,101808.47
2023-09-08T04:27:55.345Z,101808.56
2023-09-08T04:30:22.531Z,101802.56
2023-09-08T04:32:49.405Z,101805.91
2023-09-08T04:35:16.006Z,101803.31
2023-09-08T04:37:42.536Z,101811.19
2023-09-08T04:40:09.416Z,101803.50
2023-09-08T04:42:35.988Z,101806.97
2023-09-08T04:45:02.725Z,101804.47
2023-09-08T04:47:29.400Z,101815.00
2023-09-08T04:49:55.914Z,101812.47
2023-09-08T04:52:22.649Z,101806.41
2023-09-08T04:54:49.233Z,101802.06
2023-09-08T04:57:22.913Z,101806.25
2023-09-08T04:59:50.614Z,101801.06
2023-09-08T05:02:19.402Z,101803.00
2023-09-08T05:04:46.116Z,101810.00
2023-09-08T05:07:14.260Z,101813.66
2023-09-08T05:09:40.814Z,101811.00
2023-09-08T05:12:07.712Z,101814.38
2023-09-08T05:14:34.268Z,101809.16
2023-09-08T05:17:00.804Z,101803.97
2023-09-08T05:19:27.410Z,101811.69
2023-09-08T05:21:56.014Z,101809.22
2023-09-08T05:24:22.783Z,101810.22
2023-09-08T05:26:49.466Z,101812.84
2023-09-08T05:29:16.040Z,101814.63
2023-09-08T05:31:42.999Z,101813.91
2023-09-08T05:34:09.428Z,101823.44
2023-09-08T05:36:39.117Z,101825.00
2023-09-08T05:39:06.467Z,101824.88
2023-09-08T05:41:34.758Z,101824.00
2023-09-08T05:44:01.687Z,101826.56
2023-09-08T05:46:28.682Z,101828.91
2023-09-08T05:48:55.222Z,101817.56
2023-09-08T05:51:21.809Z,101821.69
2023-09-08T05:53:48.268Z,101824.16
2023-09-08T05:56:14.755Z,101827.50
2023-09-08T05:58:41.230Z,101835.88
2023-09-08T06:01:08.535Z,101830.47
2023-09-08T06:03:35.395Z,101832.66
2023-09-08T06:06:02.023Z,101834.00
2023-09-08T06:08:28.602Z,101839.78
2023-09-08T06:10:55.130Z,101838.53
2023-09-08T06:13:21.943Z,101838.91
2023-09-08T06:15:48.526Z,101837.59
2023-09-08T06:18:15.095Z,101842.41
2023-09-08T06:20:48.348Z,101840.44
2023-09-08T06:23:15.755Z,101845.97
2023-09-08T06:25:42.682Z,101836.91
2023-09-08T06:28:09.140Z,101845.84
2023-09-08T06:30:42.615Z,101837.53
2023-09-08T06:33:09.795Z,101829.31
2023-09-08T06:35:36.503Z,101835.78
2023-09-08T06:38:03.071Z,101834.44
2023-09-08T06:40:32.650Z,101841.66
2023-09-08T06:43:01.395Z,101842.81
2023-09-08T06:45:29.410Z,101842.31
2023-09-08T06:47:56.349Z,101847.22
2023-09-08T06:50:24.100Z,101838.88
2023-09-08T06:52:51.271Z,101843.63
2023-09-08T06:55:18.596Z,101849.09
2023-09-08T06:57:45.846Z,101844.28
2023-09-08T07:00:13.653Z,101850.72
2023-09-08T07:02:40.788Z,101851.88
2023-09-08T07:05:09.331Z,101849.53
2023-09-08T07:07:36.637Z,101850.72
2023-09-08T07:10:06.927Z,101854.47
2023-09-08T07:12:33.826Z,101859.84
2023-09-08T07:15:03.628Z,101855.78
2023-09-08T07:17:30.399Z,101865.56
2023-09-08T07:19:57.076Z,101853.78
2023-09-08T07:22:23.592Z,101848.88
2023-09-08T07:24:50.138Z,101851.66
2023-09-08T07:27:16.683Z,101852.00
2023-09-08T07:29:43.294Z,101848.00
2023-09-08T07:32:09.822Z,101845.72
2023-09-08T07:34:36.341Z,101854.63
2023-09-08T07:37:02.819Z,101858.41
2023-09-08T07:39:29.340Z,101848.28
2023-09-08T07:41:59.106Z,101853.63
2023-09-08T07:44:28.291Z,101859.91
2023-09-08T07:46:56.423Z,101860.09
2023-09-08T07:49:23.083Z,101859.56
2023-09-08T07:51:49.623Z,101853.66
2023-09-08T07:54:16.190Z,101858.34
2023-09-08T07:56:42.919Z,101859.38
2023-09-08T07:59:09.463Z,101855.22
2023-09-08T08:01:36.263Z,101848.19
2023-09-08T08:04:04.777Z,101851.09
2023-09-08T08:06:31.567Z,101853.00
2023-09-08T08:08:59.665Z,101853.25
2023-09-08T08:11:29.220Z,101848.22
2023-09-08T08:13:57.594Z,101836.16
2023-09-08T08:16:25.611Z,101844.81
2023-09-08T08:18:52.429Z,101843.94
2023-09-08T08:21:19.166Z,101846.66
2023-09-08T08:23:45.638Z,101851.06
2023-09-08T08:26:12.137Z,101846.94
2023-09-08T08:28:38.773Z,101841.75
2023-09-08T08:31:05.906Z,101839.38
2023-09-08T08:33:33.149Z,101840.22
2023-09-08T08:35:59.906Z,101841.38
2023-09-08T08:38:26.370Z,101837.38
2023-09-08T08:40:52.857Z,101837.69
2023-09-08T08:43:20.656Z,101840.50
2023-09-08T08:45:48.711Z,101843.31
2023-09-08T08:48:19.304Z,101834.22
2023-09-08T08:50:45.971Z,101836.94
2023-09-08T08:53:13.786Z,101840.25
2023-09-08T08:55:41.274Z,101842.97
2023-09-08T08:58:07.746Z,101841.38
2023-09-08T09:00:38.818Z,101845.97
2023-09-08T09:03:14.836Z,101835.56
2023-09-08T09:05:47.708Z,101845.16
2023-09-08T09:08:17.093Z,101844.28
2023-09-08T09:10:43.910Z,101836.44
2023-09-08T09:13:10.626Z,101841.16
2023-09-08T09:15:37.127Z,101837.50
2023-09-08T09:18:08.369Z,101838.38
2023-09-08T09:20:36.030Z,101835.31
2023-09-08T09:23:02.786Z,101844.97
2023-09-08T09:25:31.923Z,101836.41
2023-09-08T09:28:01.175Z,101835.00
2023-09-08T09:30:28.988Z,101833.13
2023-09-08T09:33:06.185Z,101832.78
2023-09-08T09:35:53.451Z,101834.34
2023-09-08T09:38:21.712Z,101839.66
2023-09-08T09:40:49.410Z,101845.03
2023-09-08T09:43:17.756Z,101837.41
2023-09-08T09:45:44.419Z,101832.25
2023-09-08T09:48:12.009Z,101830.53
2023-09-08T09:50:46.489Z,101834.22
2023-09-08T09:53:14.729Z,101838.78
2023-09-08T09:55:42.711Z,101835.75
2023-09-08T09:58:11.566Z,101840.25
2023-09-08T10:00:39.270Z,101836.63
2023-09-08T10:03:06.936Z,101838.91
2023-09-08T10:05:34.984Z,101832.47
2023-09-08T10:08:01.874Z,101834.47
2023-09-08T10:10:31.656Z,101840.63
2023-09-08T10:13:03.753Z,101832.91
2023-09-08T10:15:32.157Z,101827.13
2023-09-08T10:18:00.885Z,101829.47
2023-09-08T10:20:29.764Z,101833.41
2023-09-08T10:23:13.226Z,101831.09
2023-09-08T10:25:45.202Z,101827.97
2023-09-08T10:28:13.937Z,101823.25
2023-09-08T10:30:41.050Z,101823.41
2023-09-08T10:33:08.595Z,101823.97
2023-09-08T10:35:35.974Z,101826.06
2023-09-08T10:38:28.298Z,101824.53
2023-09-08T10:41:15.308Z,101816.59
2023-09-08T10:43:55.806Z,101815.06
2023-09-08T10:46:24.474Z,101819.41
2023-09-08T10:48:51.105Z,101809.25
2023-09-08T10:51:22.366Z,101812.41
2023-09-08T10:53:50.631Z,101807.09
2023-09-08T10:56:18.490Z,101809.56
2023-09-08T10:58:51.137Z,101808.16
2023-09-08T11:01:20.387Z,101815.91
2023-09-08T11:03:50.748Z,101816.09
2023-09-08T11:06:23.374Z,101813.66
2023-09-08T11:08:54.115Z,101816.66
2023-09-08T11:11:21.184Z,101819.69
2023-09-08T11:13:49.058Z,101810.94
2023-09-08T11:16:17.000Z,101804.81
2023-09-08T11:18:44.085Z,101807.69
2023-09-08T11:21:12.046Z,101805.13
2023-09-08T11:23:39.362Z,101816.38
2023-09-08T11:26:07.298Z,101814.78
2023-09-08T11:28:34.356Z,101810.97
2023-09-08T11:31:01.285Z,101810.91
2023-09-08T11:33:28.638Z,101822.09
2023-09-08T11:35:59.048Z,101821.44
2023-09-08T11:38:30.869Z,101826.63
2023-09-08T11:40:58.772Z,101808.63
2023-09-08T11:43:28.736Z,101815.09
2023-09-08T11:45:56.686Z,101817.88
2023-09-08T11:48:25.577Z,101819.25
2023-09-08T11:50:54.935Z,101809.41
2023-09-08T11:53:24.928Z,101815.50
2023-09-08T11:55:51.558Z,101817.19
2023-09-08T11:58:19.509Z,101808.00
2023-09-08T12:00:48.787Z,101815.63
2023-09-08T12:03:17.468Z,101808.72
2023-09-08T12:05:51.709Z,101812.38
2023-09-08T12:08:18.409Z,101801.44
2023-09-08T12:10:45.184Z,101804.63
2023-09-08T12:13:14.467Z,101806.31
2023-09-08T12:15:42.258Z,101803.47
2023-09-08T12:18:11.250Z,101806.78
2023-09-08T12:20:38.876Z,101811.09
2023-09-08T12:23:10.794Z,101807.09
2023-09-08T12:25:46.502Z,101803.81
2023-09-08T12:28:12.998Z,101800.47
2023-09-08T12:30:39.889Z,101799.47
2023-09-08T12:33:06.724Z,101803.28
2023-09-08T12:35:33.601Z,101801.94
2023-09-08T12:38:02.862Z,101793.66
2023-09-08T12:40:31.239Z,101796.00
2023-09-08T12:43:03.429Z,101799.13
2023-09-08T12:45:36.759Z,101787.41
2023-09-08T12:48:04.597Z,101793.22
2023-09-08T12:50:31.933Z,101790.06
2023-09-08T12:52:58.741Z,101789.06
2023-09-08T12:55:25.391Z,101788.28
2023-09-08T12:57:55.504Z,101785.78
2023-09-08T13:00:24.403Z,101788.22
2023-09-08T13:02:51.385Z,101784.56
2023-09-08T13:05:18.619Z,101780.06
2023-09-08T13:07:45.325Z,101780.38
2023-09-08T13:10:11.985Z,101773.94
2023-09-08T13:12:39.359Z,101781.03
2023-09-08T13:15:06.597Z,101784.75
2023-09-08T13:17:33.057Z,101769.31
2023-09-08T13:19:59.499Z,101777.94
2023-09-08T13:22:26.426Z,101782.09
2023-09-08T13:24:52.944Z,101769.97
2023-09-08T13:27:19.911Z,101772.84
2023-09-08T13:29:46.444Z,101765.28
2023-09-08T13:32:13.503Z,101761.03
2023-09-08T13:34:40.125Z,101762.34
2023-09-08T13:37:06.661Z,101756.84
2023-09-08T13:39:33.242Z,101761.75
2023-09-08T13:42:01.828Z,101760.28
2023-09-08T13:44:28.883Z,101756.09
2023-09-08T13:46:56.397Z,101759.81
2023-09-08T13:49:27.437Z,101755.41
2023-09-08T13:51:57.171Z,101765.28
2023-09-08T13:54:25.066Z,101756.13
2023-09-08T13:57:01.651Z,101747.09
2023-09-08T13:59:30.236Z,101752.06
2023-09-08T14:02:28.917Z,101754.53
2023-09-08T14:04:51.564Z,101757.22
2023-09-08T14:09:54.924Z,101750.00
2023-09-08T14:12:34.564Z,101747.16
2023-09-08T14:15:02.695Z,101753.16
2023-09-08T14:17:29.173Z,101752.53
2023-09-08T14:19:55.689Z,101746.69
2023-09-08T14:22:22.391Z,101743.47
2023-09-08T14:24:48.879Z,101743.47
2023-09-08T14:27:15.417Z,101742.94
2023-09-08T14:29:41.920Z,101733.56
2023-09-08T14:32:08.643Z,101736.00
2023-09-08T14:34:35.101Z,101735.81
2023-09-08T14:37:04.096Z,101736.66
2023-09-08T14:39:31.305Z,101734.25
2023-09-08T14:41:57.782Z,101737.69
2023-09-08T14:44:24.320Z,101731.94
2023-09-08T14:46:52.941Z,101736.00
2023-09-08T14:49:19.577Z,101736.16
2023-09-08T14:51:46.142Z,101733.94
2023-09-08T14:54:12.740Z,101736.69
2023-09-08T14:56:39.207Z,101732.56
2023-09-08T14:59:05.752Z,101730.16
2023-09-08T15:01:32.571Z,101732.63
2023-09-08T15:03:59.353Z,101733.44
2023-09-08T15:06:28.445Z,101725.66
2023-09-08T15:08:55.284Z,101728.50
2023-09-08T15:11:21.890Z,101736.09
2023-09-08T15:13:48.688Z,101733.97
2023-09-08T15:16:15.870Z,101730.00
2023-09-08T15:18:42.640Z,101722.88
2023-09-08T15:21:09.282Z,101725.72
2023-09-08T15:23:36.810Z,101726.13
2023-09-08T15:26:03.705Z,101727.69
2023-09-08T15:28:30.547Z,101727.81
2023-09-08T15:30:57.377Z,101722.28
2023-09-08T15:33:24.813Z,101723.63
2023-09-08T15:35:55.844Z,101725.28
2023-09-08T15:38:23.747Z,101717.00
2023-09-08T15:41:20.348Z,101711.91
2023-09-08T15:43:49.502Z,101714.34
2023-09-08T15:46:16.050Z,101717.72
2023-09-08T15:48:42.604Z,101725.00
2023-09-08T15:51:10.761Z,101714.28
2023-09-08T15:53:39.056Z,101714.72
2023-09-08T15:56:07.358Z,101719.69
2023-09-08T15:58:34.369Z,101712.38
2023-09-08T16:01:01.596Z,101707.94
2023-09-08T16:03:28.314Z,101713.69
2023-09-08T16:05:54.990Z,101714.88
2023-09-08T16:08:23.467Z,101713.44
2023-09-08T16:10:52.691Z,101711.47
2023-09-08T16:13:20.868Z,101714.38
2023-09-08T16:15:47.406Z,101706.41
2023-09-08T16:18:14.200Z,101706.91
2023-09-08T16:20:40.860Z,101712.88
2023-09-08T16:23:08.431Z,101706.38
2023-09-08T16:25:35.051Z,101707.28
2023-09-08T16:28:01.683Z,101708.41
2023-09-08T16:30:28.826Z,101704.25
2023-09-08T16:32:56.212Z,101705.09
2023-09-08T16:35:22.856Z,101707.38
2023-09-08T16:37:49.352Z,101702.06
2023-09-08T16:40:19.019Z,101705.06
2023-09-08T16:42:45.742Z,101703.34
2023-09-08T16:45:13.773Z,101698.72
2023-09-08T16:47:41.899Z,101704.38
2023-09-08T16:50:08.956Z,101700.78
2023-09-08T16:52:35.700Z,101699.13
2023-09-08T16:55:02.138Z,101699.44
2023-09-08T16:57:28.640Z,101703.84
2023-09-08T16:59:55.188Z,101699.50
2023-09-08T17:02:21.676Z,101705.91
2023-09-08T17:04:48.336Z,101705.81
2023-09-08T17:07:15.937Z,101702.88
2023-09-08T17:09:42.740Z,101701.28
2023-09-08T17:12:10.730Z,101703.59
2023-09-08T17:14:37.641Z,101703.25
2023-09-08T17:17:04.664Z,101693.59
2023-09-08T17:19:31.272Z,101703.16
2023-09-08T17:21:59.285Z,101701.19
2023-09-08T17:24:27.132Z,101702.78
2023-09-08T17:26:53.629Z,101702.50
2023-09-08T17:29:20.064Z,101702.81
2023-09-08T17:31:47.028Z,101705.00
2023-09-08T17:34:19.946Z,101699.63
2023-09-08T17:36:54.188Z,101709.41
2023-09-08T17:39:20.887Z,101700.47
2023-09-08T17:41:48.990Z,101708.81
2023-09-08T17:44:15.491Z,101701.94
2023-09-08T17:46:42.712Z,101703.97
2023-09-08T17:49:09.230Z,101703.34
2023-09-08T17:51:35.876Z,101703.59
2023-09-08T17:54:03.109Z,101701.97
2023-09-08T17:56:30.348Z,101718.25
2023-09-08T17:58:57.158Z,101710.78
2023-09-08T18:01:23.691Z,101720.38
2023-09-08T18:03:50.374Z,101711.25
2023-09-08T18:06:17.063Z,101717.63
2023-09-08T18:08:44.719Z,101719.72
2023-09-08T18:11:11.412Z,101722.63
2023-09-08T18:13:39.264Z,101723.59
2023-09-08T18:16:06.042Z,101728.16
2023-09-08T18:18:33.791Z,101725.75
2023-09-08T18:21:00.297Z,101727.00
2023-09-08T18:23:26.793Z,101730.00
2023-09-08T18:25:55.353Z,101732.84
2023-09-08T18:28:22.647Z,101732.69
2023-09-08T18:30:49.224Z,101738.03
2023-09-08T18:33:15.797Z,101734.34
2023-09-08T18:35:42.729Z,101733.72
2023-09-08T18:38:09.990Z,101734.75
2023-09-08T18:40:36.743Z,101731.84
2023-09-08T18:43:03.895Z,101740.63
2023-09-08T18:45:30.456Z,101737.94
2023-09-08T18:47:57.016Z,101751.31
2023-09-08T18:50:23.527Z,101752.06
2023-09-08T18:52:50.121Z,101754.00
2023-09-08T18:55:16.652Z,101751.97
2023-09-08T18:57:43.206Z,101753.78
2023-09-08T19:00:10.613Z,101762.66
2023-09-08T19:02:37.312Z,101769.19
2023-09-08T19:05:05.625Z,101758.41
2023-09-08T19:07:32.600Z,101762.69
2023-09-08T19:09:59.206Z,101765.44
2023-09-08T19:12:25.924Z,101762.94
2023-09-08T19:14:52.556Z,101762.47
2023-09-08T19:17:19.038Z,101762.09
2023-09-08T19:19:45.552Z,101760.19
2023-09-08T19:22:12.142Z,101766.22
2023-09-08T19:24:38.668Z,101768.97
2023-09-08T19:27:05.293Z,101765.00
2023-09-08T19:29:31.798Z,101768.59
2023-09-08T19:31:59.439Z,101765.72
2023-09-08T19:34:25.888Z,101762.47
2023-09-08T19:36:52.491Z,101761.75
2023-09-08T19:39:19.109Z,101764.38
2023-09-08T19:41:45.749Z,101772.53
2023-09-08T19:44:12.303Z,101769.53
2023-09-08T19:46:38.820Z,101763.69
2023-09-08T19:49:08.196Z,101761.44
2023-09-08T19:51:34.695Z,101764.84
2023-09-08T19:54:01.670Z,101764.41
2023-09-08T19:56:29.708Z,101759.16
2023-09-08T19:58:56.128Z,101761.03
2023-09-08T20:01:25.590Z,101761.50
2023-09-08T20:03:52.099Z,101758.59
2023-09-08T20:06:18.652Z,101761.44
2023-09-08T20:08:45.225Z,101754.53
2023-09-08T20:11:11.706Z,101753.94
2023-09-08T20:13:38.399Z,101749.41
2023-09-08T20:16:07.978Z,101757.44
2023-09-08T20:18:36.076Z,101752.91
2023-09-08T20:21:05.696Z,101757.91
2023-09-08T20:23:33.710Z,101758.88
2023-09-08T20:26:00.636Z,101761.19
2023-09-08T20:28:27.159Z,101753.25
2023-09-08T20:31:12.988Z,101754.72
2023-09-08T20:33:41.096Z,101754.00
2023-09-08T20:36:07.668Z,101747.19
2023-09-08T20:38:34.372Z,101749.63
2023-09-08T20:41:01.304Z,101748.72
2023-09-08T20:43:27.956Z,101746.31
2023-09-08T20:46:03.784Z,101753.31
2023-09-08T20:48:35.456Z,101753.75
2023-09-08T20:51:07.792Z,101754.78
2023-09-08T20:53:39.412Z,101747.88
2023-09-08T20:56:12.656Z,101746.31
2023-09-08T20:58:40.601Z,101747.75
2023-09-08T21:01:07.641Z,101745.03
2023-09-08T21:03:36.167Z,101750.25
2023-09-08T21:06:03.633Z,101746.28
2023-09-08T21:08:33.314Z,101743.84
2023-09-08T21:10:59.943Z,101738.75
2023-09-08T21:13:27.017Z,101740.09
2023-09-08T21:15:53.810Z,101733.81
2023-09-08T21:18:20.649Z,101739.34
2023-09-08T21:23:17.881Z,101735.31
2023-09-08T21:25:44.465Z,101735.69
2023-09-08T21:28:10.991Z,101744.56
2023-09-08T21:30:37.543Z,101743.63
2023-09-08T21:33:04.392Z,101738.41
2023-09-08T21:35:32.053Z,101737.66
2023-09-08T21:37:58.728Z,101734.63
2023-09-08T21:40:25.398Z,101745.09
2023-09-08T21:42:52.084Z,101740.91
2023-09-08T21:45:18.858Z,101744.25
2023-09-08T21:47:48.084Z,101739.31
2023-09-08T21:50:15.843Z,101740.25
2023-09-08T21:52:42.539Z,101745.78
2023-09-08T21:55:10.728Z,101744.56
2023-09-08T21:57:37.394Z,101743.56
2023-09-08T22:00:06.669Z,101747.41
2023-09-08T22:02:33.511Z,101743.13
2023-09-08T22:05:00.425Z,101749.56
2023-09-08T22:07:27.027Z,101749.06
2023-09-08T22:09:54.100Z,101747.47
2023-09-08T22:12:20.851Z,101746.00
2023-09-08T22:14:49.966Z,101740.97
2023-09-08T22:17:16.880Z,101748.25
2023-09-08T22:19:43.693Z,101739.41
2023-09-08T22:22:10.205Z,101738.38
2023-09-08T22:24:36.666Z,101742.84
2023-09-08T22:27:05.049Z,101739.41
2023-09-08T22:29:32.059Z,101738.28
2023-09-08T22:31:58.851Z,101739.56
2023-09-08T22:34:26.537Z,101743.94
2023-09-08T22:36:53.205Z,101738.28
2023-09-08T22:39:19.670Z,101741.69
2023-09-08T22:41:46.154Z,101739.47
2023-09-08T22:44:12.737Z,101740.84
2023-09-08T22:46:39.261Z,101737.13
2023-09-08T22:49:05.795Z,101737.66
2023-09-08T22:51:32.452Z,101740.78
2023-09-08T22:53:58.914Z,101740.03
2023-09-08T22:56:25.549Z,101731.06
2023-09-08T22:58:52.103Z,101736.34
2023-09-08T23:01:18.933Z,101728.63
2023-09-08T23:03:45.735Z,101737.69
2023-09-08T23:06:14.827Z,101738.50
2023-09-08T23:08:41.395Z,101732.09
2023-09-08T23:11:07.986Z,101735.53
2023-09-08T23:13:37.862Z,101731.81
2023-09-08T23:16:04.936Z,101735.44
2023-09-08T23:18:31.800Z,101739.13
2023-09-08T23:20:58.289Z,101734.13
2023-09-08T23:23:24.920Z,101735.22
2023-09-08T23:25:51.523Z,101732.97
2023-09-08T23:28:18.115Z,101729.63
2023-09-08T23:30:44.654Z,101737.75
2023-09-08T23:33:11.620Z,101739.69
2023-09-08T23:35:38.240Z,101738.88
2023-09-08T23:38:04.973Z,101741.06
2023-09-08T23:40:31.508Z,101738.03
2023-09-08T23:42:58.253Z,101729.50
2023-09-08T23:45:25.356Z,101723.63
2023-09-08T23:47:51.869Z,101722.13
2023-09-08T23:50:18.419Z,101729.09
2023-09-08T23:52:44.994Z,101720.34
2023-09-08T23:55:12.024Z,101723.44
2023-09-08T23:57:38.564Z,101730.41
